Time;durP1;ratioP1;P1;durP2;ratioP2;P2;SDS_P1;SDS_P2;PMS_P1;PMS_P2;Temp;Humidity;BMP_temperature;BMP_pressure;BME280_temperature;BME280_humidity;BME280_pressure;Samples;Min_cycle;Max_cycle;Signal;HPM_P1;HPM_P2
2021/05/01 00:02:10;;;;;;;6.57;5.97;;;10.20;99.90;9.50;96146.00;;;;5115810;27;20616;-60
2021/05/01 00:04:58;;;;;;;7.73;6.50;;;10.20;99.90;9.60;96148.00;;;;5126950;27;20202;-57
2021/05/01 00:07:46;;;;;;;5.17;4.60;;;10.20;99.90;9.60;96149.00;;;;5113810;27;20202;-59
2021/05/01 00:10:34;;;;;;;5.57;5.07;;;10.20;99.90;9.60;96159.00;;;;5117331;27;20198;-57
2021/05/01 00:13:22;;;;;;;6.70;5.03;;;10.20;99.90;9.60;96152.00;;;;5126973;27;20222;-57
2021/05/01 00:16:11;;;;;;;7.33;4.93;;;10.30;99.90;9.60;96136.00;;;;5111160;27;20198;-59
2021/05/01 00:18:59;;;;;;;5.87;5.30;;;10.30;99.90;9.60;96155.00;;;;5108009;27;20199;-59
2021/05/01 00:21:47;;;;;;;5.67;5.07;;;10.30;99.90;9.60;96157.00;;;;5114134;27;20708;-56
2021/05/01 00:24:34;;;;;;;7.90;5.50;;;10.30;99.90;9.70;96154.00;;;;5126622;27;20201;-60
2021/05/01 00:27:22;;;;;;;5.60;5.00;;;10.30;99.90;9.50;96156.00;;;;5126435;27;20197;-58
2021/05/01 00:30:12;;;;;;;6.03;5.37;;;10.30;99.90;9.40;96158.00;;;;5115753;27;20590;-55
2021/05/01 00:33:01;;;;;;;6.23;5.47;;;10.20;99.90;9.40;96148.00;;;;5107894;27;20226;-56
2021/05/01 00:35:48;;;;;;;6.30;4.90;;;10.20;99.90;9.50;96150.00;;;;5109146;27;20206;-57
2021/05/01 00:38:36;;;;;;;7.53;5.20;;;10.20;99.90;9.60;96150.00;;;;5126013;27;20232;-57
2021/05/01 00:41:24;;;;;;;6.53;5.40;;;10.20;99.90;9.50;96139.00;;;;5127014;27;20237;-56
2021/05/01 00:44:13;;;;;;;7.27;5.23;;;10.20;99.90;9.60;96125.00;;;;5125861;27;20565;-54
2021/05/01 00:47:00;;;;;;;6.77;4.70;;;10.20;99.90;9.60;96121.00;;;;5126380;27;20238;-56
2021/05/01 00:49:49;;;;;;;5.00;3.90;;;10.20;99.90;9.50;96129.00;;;;5126944;27;20206;-56
2021/05/01 00:52:37;;;;;;;6.23;4.43;;;10.20;99.90;9.40;96134.00;;;;5126514;27;20237;-58
2021/05/01 00:55:25;;;;;;;5.43;4.83;;;10.20;99.90;9.40;96129.00;;;;5104991;28;20207;-57
2021/05/01 00:58:14;;;;;;;5.03;4.00;;;10.10;99.90;9.40;96125.00;;;;5125672;27;20227;-59
2021/05/01 01:04:05;;;;;;;5.80;4.53;;;10.10;99.90;9.40;96122.00;;;;5105280;28;20198;-57
2021/05/01 01:06:54;;;;;;;4.53;4.13;;;10.10;99.90;9.30;96119.00;;;;5105193;28;20206;-57
2021/05/01 01:09:42;;;;;;;4.97;4.43;;;10.10;99.90;9.40;96101.00;;;;5106262;28;20221;-59
2021/05/01 01:12:30;;;;;;;4.57;4.10;;;10.10;99.90;9.40;96095.00;;;;5106471;28;20226;-57
2021/05/01 01:15:25;;;;;;;7.47;3.90;;;10.10;99.90;9.40;96096.00;;;;5104056;28;20211;-56
2021/05/01 01:18:14;;;;;;;5.53;4.20;;;10.10;99.90;9.10;96101.00;;;;5104715;28;20688;-57
2021/05/01 01:21:04;;;;;;;5.00;4.60;;;10.00;99.90;9.10;96103.00;;;;5106088;28;20249;-59
2021/05/01 01:23:53;;;;;;;4.70;4.33;;;9.90;99.90;9.20;96093.00;;;;5104678;28;20217;-54
2021/05/01 01:26:42;;;;;;;8.23;4.40;;;9.90;99.90;9.20;96089.00;;;;5097604;28;20557;-56
2021/05/01 01:29:30;;;;;;;4.43;4.03;;;9.90;99.90;9.30;96102.00;;;;5084999;28;20582;-57
2021/05/01 01:32:18;;;;;;;4.47;4.07;;;9.90;99.90;9.20;96106.00;;;;5106260;28;20308;-58
2021/05/01 01:35:09;;;;;;;6.43;5.00;;;9.90;99.90;9.20;96095.00;;;;5124961;27;20198;-54
2021/05/01 01:37:57;;;;;;;5.17;4.53;;;9.90;99.90;9.20;96110.00;;;;5124488;27;20217;-59
2021/05/01 01:40:46;;;;;;;5.43;4.63;;;9.90;99.90;9.20;96104.00;;;;5124388;28;20202;-59
2021/05/01 01:43:33;;;;;;;6.00;4.37;;;9.90;99.90;9.20;96114.00;;;;5126349;28;20199;-58
2021/05/01 01:46:21;;;;;;;4.10;3.70;;;9.90;99.90;9.20;96118.00;;;;5125868;28;20204;-56
2021/05/01 01:49:09;;;;;;;4.70;4.07;;;9.90;99.90;9.20;96118.00;;;;5124371;28;20617;-58
2021/05/01 01:51:57;;;;;;;5.80;3.70;;;9.90;99.90;9.20;96131.00;;;;5110227;28;20218;-58
2021/05/01 01:54:44;;;;;;;5.17;4.60;;;9.90;99.90;9.20;96143.00;;;;5109092;27;20198;-58
2021/05/01 01:57:33;;;;;;;6.83;4.50;;;9.80;99.90;9.30;96137.00;;;;5120123;27;20279;-55
2021/05/01 02:00:24;;;;;;;4.53;4.10;;;9.90;99.90;9.40;96143.00;;;;5115727;27;20205;-58
2021/05/01 02:03:14;;;;;;;4.23;3.83;;;9.90;99.90;9.40;96143.00;;;;5110208;27;20217;-58
2021/05/01 02:06:02;;;;;;;5.10;3.80;;;10.00;99.90;9.30;96147.00;;;;5124485;27;20248;-57
2021/05/01 02:08:50;;;;;;;5.37;4.90;;;10.00;99.90;9.40;96143.00;;;;5130181;27;20190;-58
2021/05/01 02:11:38;;;;;;;4.00;3.60;;;10.00;99.90;9.40;96142.00;;;;5110542;27;20689;-58
2021/05/01 02:14:26;;;;;;;5.10;4.57;;;10.00;99.90;9.40;96146.00;;;;5124296;27;20205;-57
2021/05/01 02:17:14;;;;;;;5.33;4.33;;;10.00;99.90;9.40;96143.00;;;;5117351;27;20210;-57
2021/05/01 02:20:06;;;;;;;4.57;4.13;;;10.00;99.90;9.20;96151.00;;;;5116579;27;20567;-56
2021/05/01 02:22:54;;;;;;;4.77;4.37;;;10.00;99.90;9.20;96151.00;;;;5130245;27;20229;-57
2021/05/01 02:25:42;;;;;;;5.13;4.73;;;10.00;99.90;9.30;96147.00;;;;5128854;27;20202;-58
2021/05/01 02:28:30;;;;;;;4.30;4.00;;;10.00;99.90;9.30;96135.00;;;;5127679;27;20224;-58
2021/05/01 02:31:18;;;;;;;5.17;4.40;;;10.00;99.90;9.30;96130.00;;;;5115097;27;20218;-59
2021/05/01 02:34:06;;;;;;;3.87;3.57;;;10.00;99.90;9.30;96120.00;;;;5111270;27;20226;-58
2021/05/01 02:36:54;;;;;;;4.10;3.70;;;10.00;99.90;9.30;96122.00;;;;5108603;28;20221;-58
2021/05/01 02:39:42;;;;;;;3.50;3.20;;;10.00;99.90;9.10;96124.00;;;;5108676;28;20210;-58
2021/05/01 02:42:30;;;;;;;7.00;4.33;;;9.90;99.90;9.00;96114.00;;;;5108839;28;20223;-59
2021/05/01 02:45:20;;;;;;;3.27;3.07;;;9.80;99.90;9.10;96115.00;;;;5108711;28;20572;-59
2021/05/01 02:48:09;;;;;;;4.30;3.60;;;9.80;99.90;9.00;96133.00;;;;5107946;28;20267;-58
2021/05/01 02:50:59;;;;;;;3.50;3.20;;;9.80;99.90;8.80;96129.00;;;;5116620;27;20232;-58
2021/05/01 02:53:46;;;;;;;5.13;3.67;;;9.70;99.90;8.70;96128.00;;;;5102640;28;20608;-59
2021/05/01 02:56:34;;;;;;;4.87;2.80;;;9.60;99.90;8.70;96116.00;;;;5110538;27;20568;-58
2021/05/01 02:59:22;;;;;;;4.47;4.07;;;9.60;99.90;8.70;96109.00;;;;5128027;27;20225;-57
2021/05/01 03:02:10;;;;;;;4.50;3.87;;;9.50;99.90;8.60;96110.00;;;;5116777;27;20727;-57
2021/05/01 03:04:59;;;;;;;5.67;3.83;;;9.50;99.90;8.60;96112.00;;;;5109216;27;20206;-60
2021/05/01 03:07:46;;;;;;;4.37;4.07;;;9.40;99.90;8.60;96109.00;;;;5121080;27;20202;-59
2021/05/01 03:10:34;;;;;;;4.43;3.70;;;9.40;99.90;8.50;96126.00;;;;5128305;27;20205;-59
2021/05/01 03:13:22;;;;;;;3.97;3.57;;;9.40;99.90;8.30;96133.00;;;;5127348;27;20238;-59
2021/05/01 03:16:10;;;;;;;4.97;3.80;;;9.20;99.90;8.20;96134.00;;;;5127576;27;20198;-57
2021/05/01 03:18:58;;;;;;;5.60;3.40;;;9.10;99.90;8.30;96131.00;;;;5127611;27;20206;-61
2021/05/01 03:21:46;;;;;;;3.93;3.63;;;9.10;99.90;8.40;96131.00;;;;5128548;27;20228;-58
2021/05/01 03:24:35;;;;;;;4.70;3.43;;;9.10;99.90;8.40;96121.00;;;;5128136;27;20206;-60
2021/05/01 03:27:23;;;;;;;5.50;2.83;;;9.10;99.90;8.30;96128.00;;;;5127108;27;20217;-59
2021/05/01 03:30:14;;;;;;;3.80;3.50;;;9.10;99.90;8.00;96125.00;;;;5128172;27;20194;-59
2021/05/01 03:33:02;;;;;;;2.90;2.70;;;9.00;99.90;8.00;96117.00;;;;5121076;27;20608;-59
2021/05/01 03:35:50;;;;;;;3.27;2.97;;;8.90;99.90;8.10;96124.00;;;;5106431;28;20215;-59
2021/05/01 03:38:39;;;;;;;5.10;3.53;;;8.90;99.90;8.00;96116.00;;;;5113719;27;20205;-60
2021/05/01 03:41:27;;;;;;;3.03;2.83;;;8.80;99.90;8.00;96121.00;;;;5115335;27;20234;-59
2021/05/01 03:44:16;;;;;;;4.47;3.10;;;8.80;99.90;7.90;96118.00;;;;5122759;27;20594;-57
2021/05/01 03:47:04;;;;;;;6.03;3.50;;;8.70;99.90;7.60;96125.00;;;;5120050;27;20205;-59
2021/05/01 03:49:52;;;;;;;3.73;3.43;;;8.60;99.90;7.60;96121.00;;;;5127808;27;20249;-58
2021/05/01 03:52:39;;;;;;;4.33;3.30;;;8.50;99.90;7.60;96121.00;;;;5126818;27;20225;-56
2021/05/01 03:55:28;;;;;;;3.47;3.17;;;8.50;99.90;7.60;96126.00;;;;5127848;27;20198;-57
2021/05/01 03:58:16;;;;;;;3.73;3.43;;;8.50;99.90;7.50;96127.00;;;;5126294;27;20578;-59
2021/05/01 04:01:04;;;;;;;3.40;3.07;;;8.40;99.90;7.60;96137.00;;;;5106264;28;20223;-58
2021/05/01 04:03:51;;;;;;;3.63;3.33;;;8.40;99.90;7.50;96122.00;;;;5106586;28;20190;-58
2021/05/01 04:06:39;;;;;;;3.80;3.20;;;8.40;99.90;7.50;96131.00;;;;5106258;28;20731;-58
2021/05/01 04:09:27;;;;;;;4.13;3.50;;;8.30;99.90;7.40;96142.00;;;;5106126;28;20205;-58
2021/05/01 04:12:16;;;;;;;4.50;3.33;;;8.30;99.90;7.40;96134.00;;;;5107600;28;20214;-57
2021/05/01 04:15:05;;;;;;;3.90;3.20;;;8.30;99.90;7.30;96136.00;;;;5106953;28;20214;-58
2021/05/01 04:17:53;;;;;;;6.00;3.20;;;8.20;99.90;7.10;96136.00;;;;5105449;28;20214;-59
2021/05/01 04:20:42;;;;;;;4.13;3.20;;;8.10;99.90;7.10;96125.00;;;;5106573;28;20198;-58
2021/05/01 04:23:29;;;;;;;3.40;3.10;;;8.00;99.90;7.20;96138.00;;;;5096397;28;20202;-60
2021/05/01 04:26:19;;;;;;;5.23;3.23;;;8.00;99.90;7.10;96141.00;;;;5106889;28;20965;-57
2021/05/01 04:29:08;;;;;;;3.33;3.03;;;8.00;99.90;7.50;96140.00;;;;5089650;28;20660;-58
2021/05/01 04:31:56;;;;;;;2.97;2.50;;;8.00;99.90;7.80;96131.00;;;;5106245;28;20712;-58
2021/05/01 04:34:44;;;;;;;4.40;3.73;;;8.20;99.90;7.80;96140.00;;;;5115200;27;20229;-58
2021/05/01 04:37:32;;;;;;;5.13;4.00;;;8.40;99.90;7.90;96132.00;;;;5126691;27;20575;-58
2021/05/01 04:40:19;;;;;;;3.47;3.17;;;8.50;99.90;7.60;96122.00;;;;5112260;27;20214;-58
2021/05/01 04:43:09;;;;;;;4.13;3.67;;;8.50;99.90;7.50;96123.00;;;;5116470;27;20206;-56
2021/05/01 04:45:58;;;;;;;4.63;3.00;;;8.40;99.90;7.60;96116.00;;;;5125481;27;20220;-58
2021/05/01 04:48:46;;;;;;;3.30;2.97;;;8.40;99.90;7.70;96116.00;;;;5123586;27;20204;-58
2021/05/01 04:51:35;;;;;;;3.30;3.00;;;8.40;99.90;8.00;96117.00;;;;5105399;28;20821;-57
2021/05/01 04:54:23;;;;;;;3.50;3.20;;;8.50;99.90;8.00;96115.00;;;;5113252;27;20703;-59
2021/05/01 04:57:10;;;;;;;5.03;3.40;;;8.60;99.90;8.10;96104.00;;;;5105746;28;20203;-59
2021/05/01 04:59:59;;;;;;;4.93;3.80;;;8.70;99.90;8.10;96099.00;;;;5106111;28;20195;-57
2021/05/01 05:02:48;;;;;;;3.20;2.90;;;8.70;99.90;8.20;96108.00;;;;5125140;27;20245;-59
2021/05/01 05:05:35;;;;;;;3.37;3.07;;;8.80;99.90;8.30;96100.00;;;;5115069;27;20194;-56
2021/05/01 05:08:23;;;;;;;3.00;2.70;;;8.90;99.90;8.40;96096.00;;;;5124602;27;20205;-57
2021/05/01 05:11:11;;;;;;;3.23;2.77;;;8.90;99.90;8.40;96100.00;;;;5122608;27;20226;-58
2021/05/01 05:13:59;;;;;;;3.40;3.10;;;9.00;99.90;8.40;96104.00;;;;5126388;27;20218;-56
2021/05/01 05:16:47;;;;;;;3.40;3.10;;;9.10;99.90;8.60;96103.00;;;;5127162;27;20206;-61
2021/05/01 05:19:36;;;;;;;5.90;3.10;;;9.20;99.90;8.80;96103.00;;;;5125333;27;20214;-61
2021/05/01 05:22:24;;;;;;;6.77;4.17;;;9.20;99.90;9.00;96111.00;;;;5125874;27;20684;-58
2021/05/01 05:25:13;;;;;;;6.77;6.00;;;9.40;99.90;9.30;96108.00;;;;5114195;27;20683;-59
2021/05/01 05:28:01;;;;;;;5.53;4.93;;;8.50;99.90;9.60;96100.00;;;;5124469;27;20559;-61
2021/05/01 05:30:48;;;;;;;6.27;4.40;;;9.80;99.90;9.70;96102.00;;;;5122637;27;20197;-58
2021/05/01 05:33:36;;;;;;;4.40;4.00;;;10.00;99.90;9.80;96105.00;;;;5116365;27;20221;-56
2021/05/01 05:36:25;;;;;;;8.80;4.70;;;10.10;99.90;10.00;96114.00;;;;5124758;27;20673;-57
2021/05/01 05:39:13;;;;;;;5.73;4.37;;;10.30;99.90;9.90;96104.00;;;;5099814;28;20221;-59
2021/05/01 05:42:02;;;;;;;5.03;3.63;;;10.40;99.90;9.80;96105.00;;;;5104200;28;20230;-58
2021/05/01 05:44:50;;;;;;;4.47;3.90;;;10.40;99.90;9.90;96104.00;;;;5103079;28;20198;-58
2021/05/01 05:47:38;;;;;;;3.97;3.33;;;10.50;99.90;10.00;96102.00;;;;5100890;28;20584;-59
2021/05/01 05:50:26;;;;;;;4.47;4.07;;;10.50;99.90;10.20;96110.00;;;;5097938;28;20217;-57
2021/05/01 05:53:15;;;;;;;4.07;3.73;;;10.60;99.90;10.30;96115.00;;;;5127701;28;20221;-60
2021/05/01 05:56:07;;;;;;;5.30;4.80;;;10.70;99.90;10.50;96123.00;;;;5126923;28;20205;-58
2021/05/01 05:58:55;;;;;;;6.33;5.13;;;10.90;99.90;10.80;96118.00;;;;5117212;28;20217;-59
2021/05/01 06:01:46;;;;;;;5.33;4.80;;;11.00;99.90;11.10;96108.00;;;;5118882;28;20227;-57
2021/05/01 06:04:41;;;;;;;5.13;4.57;;;11.20;99.90;11.40;96102.00;;;;5121637;28;20225;-58
2021/05/01 06:07:34;;;;;;;5.23;4.50;;;11.40;99.90;11.50;96106.00;;;;5124157;28;20216;-59
2021/05/01 06:10:23;;;;;;;5.97;4.70;;;11.60;99.90;11.60;96117.00;;;;5116889;28;20202;-57
2021/05/01 06:13:13;;;;;;;5.03;4.53;;;11.80;99.90;11.70;96126.00;;;;5120666;28;20230;-60
2021/05/01 06:16:02;;;;;;;5.93;5.43;;;12.00;99.90;11.70;96128.00;;;;5117825;28;20574;-58
2021/05/01 06:18:51;;;;;;;6.70;4.73;;;12.10;99.90;11.90;96116.00;;;;5106524;28;20703;-58
2021/05/01 06:21:39;;;;;;;6.07;4.57;;;12.20;99.90;12.20;96122.00;;;;5103026;28;20227;-60
2021/05/01 06:24:28;;;;;;;6.70;4.33;;;12.40;99.90;12.40;96131.00;;;;5113093;28;20213;-60
2021/05/01 06:27:17;;;;;;;10.23;5.50;;;12.50;99.90;12.60;96146.00;;;;5112350;28;20202;-58
2021/05/01 06:30:09;;;;;;;7.40;4.97;;;12.70;99.90;12.70;96140.00;;;;5124338;28;20573;-60
2021/05/01 06:33:02;;;;;;;7.63;4.60;;;12.90;99.90;12.90;96143.00;;;;5110966;28;20221;-61
2021/05/01 06:35:50;;;;;;;5.10;4.57;;;13.10;99.90;13.20;96148.00;;;;5100698;28;20199;-59
2021/05/01 06:38:38;;;;;;;4.53;4.10;;;13.30;99.90;13.60;96146.00;;;;5084232;28;20578;-58
2021/05/01 06:41:32;;;;;;;4.57;4.17;;;13.50;99.90;13.80;96149.00;;;;5098574;28;20248;-58
2021/05/01 06:44:40;;;;;;;5.73;3.83;;;13.70;99.90;14.00;96152.00;;;;5128857;27;20210;-58
2021/05/01 06:47:31;;;;;;;6.23;4.10;;;14.00;99.90;14.20;96138.00;;;;5114589;27;20279;-57
2021/05/01 06:50:22;;;;;;;4.47;4.07;;;14.20;99.90;14.50;96135.00;;;;5114653;27;20206;-54
2021/05/01 06:53:24;;;;;;;3.57;3.27;;;14.40;99.90;14.70;96132.00;;;;5107569;28;20590;-61
2021/05/01 06:56:14;;;;;;;3.53;3.23;;;14.70;99.90;14.90;96122.00;;;;5125509;27;20205;-57
2021/05/01 06:59:04;;;;;;;4.13;3.00;;;14.90;99.90;15.20;96122.00;;;;5123655;27;20202;-58
2021/05/01 07:01:53;;;;;;;5.73;3.40;;;15.10;99.90;15.20;96117.00;;;;5127659;27;20217;-57
2021/05/01 07:04:41;;;;;;;3.10;2.73;;;15.30;99.90;15.30;96129.00;;;;5120158;27;20205;-58
2021/05/01 07:07:30;;;;;;;3.93;3.03;;;15.40;99.90;15.40;96115.00;;;;5118433;27;20205;-61
2021/05/01 07:10:18;;;;;;;3.77;2.83;;;15.60;99.90;15.60;96108.00;;;;5088998;28;20206;-58
2021/05/01 07:13:06;;;;;;;4.60;2.40;;;15.70;99.90;15.80;96115.00;;;;5103070;28;20210;-58
2021/05/01 07:16:02;;;;;;;4.60;2.83;;;15.90;99.90;15.90;96123.00;;;;5108029;28;20206;-59
2021/05/01 07:18:51;;;;;;;3.33;3.03;;;16.00;99.90;16.10;96112.00;;;;5127767;27;20209;-58
2021/05/01 07:21:39;;;;;;;5.53;2.23;;;16.20;99.90;16.30;96121.00;;;;5107361;28;20226;-58
2021/05/01 07:24:27;;;;;;;3.57;2.60;;;16.30;99.90;16.40;96115.00;;;;5123819;27;20397;-59
2021/05/01 07:27:15;;;;;;;3.77;3.30;;;16.50;99.90;16.50;96122.00;;;;5126680;27;20228;-59
2021/05/01 07:30:06;;;;;;;3.20;2.40;;;16.60;99.90;16.60;96128.00;;;;5094258;28;20673;-59
2021/05/01 07:32:57;;;;;;;2.53;2.33;;;16.70;99.90;16.90;96129.00;;;;5106903;28;20222;-57
2021/05/01 07:35:51;;;;;;;3.77;2.43;;;16.90;99.90;17.20;96142.00;;;;5107278;28;20202;-58
2021/05/01 07:38:43;;;;;;;3.20;2.60;;;17.00;99.90;17.40;96151.00;;;;5114752;27;20783;-60
2021/05/01 07:41:33;;;;;;;2.50;2.27;;;17.30;99.90;17.60;96139.00;;;;5122917;27;20295;-60
2021/05/01 07:44:21;;;;;;;5.33;2.20;;;17.40;99.90;17.70;96133.00;;;;5122003;27;20759;-60
2021/05/01 07:47:10;;;;;;;2.93;2.07;;;17.70;99.90;18.00;96146.00;;;;5122731;27;20202;-60
2021/05/01 07:49:59;;;;;;;5.60;2.50;;;17.90;99.90;18.10;96152.00;;;;5100463;28;20202;-59
2021/05/01 07:52:50;;;;;;;1.97;1.80;;;18.10;99.90;18.30;96141.00;;;;5103515;28;20214;-59
2021/05/01 07:55:38;;;;;;;3.13;1.73;;;18.20;99.90;18.70;96142.00;;;;5122203;27;20521;-59
2021/05/01 07:58:26;;;;;;;4.27;1.90;;;18.50;99.90;18.90;96141.00;;;;5114564;27;20213;-59
2021/05/01 08:01:14;;;;;;;1.87;1.53;;;18.70;99.90;18.50;96146.00;;;;5123980;27;20229;-58
2021/05/01 08:04:02;;;;;;;1.63;1.53;;;18.80;99.90;18.60;96160.00;;;;5112681;27;20574;-60
2021/05/01 08:06:50;;;;;;;4.33;1.93;;;18.80;99.90;18.90;96141.00;;;;5118389;27;20230;-59
2021/05/01 08:09:39;;;;;;;2.83;1.93;;;18.90;99.90;19.30;96150.00;;;;5118335;27;20197;-60
2021/05/01 08:12:27;;;;;;;2.63;1.50;;;19.10;99.90;19.40;96150.00;;;;5124163;27;20770;-59
2021/05/01 08:15:15;;;;;;;1.90;1.80;;;19.30;99.90;19.70;96160.00;;;;5126044;27;20631;-59
2021/05/01 08:18:03;;;;;;;3.40;1.90;;;19.50;99.90;19.50;96154.00;;;;5121126;27;20213;-59
2021/05/01 08:20:51;;;;;;;2.10;1.60;;;19.60;95.60;19.70;96148.00;;;;5120119;27;20209;-59
2021/05/01 08:23:38;;;;;;;1.67;1.57;;;19.70;94.60;19.90;96148.00;;;;5110099;27;20220;-58
2021/05/01 08:26:27;;;;;;;1.50;1.40;;;19.80;94.40;20.30;96138.00;;;;5117815;27;20284;-59
2021/05/01 08:29:15;;;;;;;2.97;1.27;;;20.10;94.80;20.30;96142.00;;;;5124635;27;20194;-59
2021/05/01 08:32:04;;;;;;;1.97;1.77;;;20.20;91.00;20.40;96145.00;;;;5113255;27;20226;-59
2021/05/01 08:34:52;;;;;;;1.03;0.90;;;20.40;87.80;20.40;96138.00;;;;5120062;27;20237;-59
2021/05/01 08:37:40;;;;;;;1.37;1.10;;;20.50;80.60;20.30;96130.00;;;;5109203;27;20209;-59
2021/05/01 08:40:28;;;;;;;4.53;1.13;;;20.60;79.60;20.30;96135.00;;;;5090428;28;20214;-58
2021/05/01 08:43:17;;;;;;;1.87;1.30;;;20.60;77.00;20.60;96144.00;;;;5089096;28;20231;-58
2021/05/01 08:46:12;;;;;;;1.87;1.43;;;20.60;77.70;20.60;96136.00;;;;5105973;27;20740;-58
2021/05/01 08:49:01;;;;;;;2.10;1.10;;;20.70;76.10;20.70;96137.00;;;;5118540;27;20714;-61
2021/05/01 08:51:50;;;;;;;4.63;1.50;;;20.80;73.70;20.90;96134.00;;;;5113588;27;20226;-59
2021/05/01 08:54:37;;;;;;;3.03;1.43;;;20.90;74.20;21.10;96128.00;;;;5113116;27;20229;-59
2021/05/01 08:57:28;;;;;;;2.33;1.37;;;21.00;73.30;21.10;96125.00;;;;5114321;27;20198;-61
2021/05/01 09:00:18;;;;;;;2.70;1.20;;;21.10;74.90;21.30;96144.00;;;;5106535;27;20194;-59
2021/05/01 09:03:08;;;;;;;1.20;1.10;;;21.30;75.00;21.10;96133.00;;;;5121406;27;20698;-61
2021/05/01 09:05:59;;;;;;;2.67;1.40;;;21.30;72.40;21.10;96125.00;;;;5123977;27;20194;-60
2021/05/01 09:08:55;;;;;;;2.50;1.40;;;21.40;71.80;21.50;96120.00;;;;5109763;27;20198;-60
2021/05/01 09:11:45;;;;;;;5.27;2.77;;;21.40;73.60;21.40;96119.00;;;;5104023;28;20237;-60
2021/05/01 09:14:34;;;;;;;2.03;1.10;;;21.50;72.20;21.70;96112.00;;;;5104860;28;20214;-60
2021/05/01 09:17:23;;;;;;;1.87;1.10;;;21.60;71.40;21.80;96124.00;;;;5117429;27;20201;-60
2021/05/01 09:20:15;;;;;;;1.93;1.60;;;21.70;71.20;20.90;96094.00;;;;5104784;28;20205;-60
2021/05/01 09:23:05;;;;;;;2.40;1.40;;;21.70;69.00;21.10;96118.00;;;;5112428;27;20205;-60
2021/05/01 09:25:57;;;;;;;1.90;1.40;;;21.60;71.70;20.40;96115.00;;;;5115550;27;20639;-60
2021/05/01 09:28:48;;;;;;;2.00;1.33;;;21.30;69.10;20.90;96098.00;;;;5124187;27;20206;-60
2021/05/01 09:31:42;;;;;;;2.60;1.20;;;20.80;71.30;20.60;96078.00;;;;5083298;28;20686;-60
2021/05/01 09:34:45;;;;;;;2.53;1.70;;;21.10;72.60;20.80;96091.00;;;;5098319;28;20233;-59
2021/05/01 09:37:33;;;;;;;0.90;0.90;;;21.00;73.70;20.50;96078.00;;;;5100385;28;20595;-59
2021/05/01 09:40:30;;;;;;;1.53;1.43;;;20.90;72.60;21.40;96089.00;;;;5084902;28;20203;-60
2021/05/01 09:43:20;;;;;;;4.33;1.57;;;21.10;75.80;21.10;96092.00;;;;5109140;28;20214;-60
2021/05/01 09:46:16;;;;;;;2.07;1.83;;;21.20;75.50;21.40;96076.00;;;;5107127;28;20213;-60
2021/05/01 09:49:07;;;;;;;4.07;1.80;;;21.30;75.10;21.60;96095.00;;;;5105116;28;20681;-60
2021/05/01 09:51:58;;;;;;;1.53;1.23;;;21.50;73.50;21.00;96078.00;;;;5103606;28;20226;-58
2021/05/01 09:54:48;;;;;;;2.23;1.53;;;21.50;73.70;20.90;96060.00;;;;5106761;28;20226;-60
2021/05/01 09:57:40;;;;;;;1.77;1.67;;;21.40;73.60;21.00;96021.00;;;;5115238;28;20198;-59
2021/05/01 10:00:28;;;;;;;2.03;1.90;;;21.40;72.30;20.80;96020.00;;;;5104189;28;20202;-60
2021/05/01 10:03:29;;;;;;;8.87;3.43;;;21.30;73.20;21.30;96081.00;;;;5105457;28;20467;-60
2021/05/01 10:06:20;;;;;;;1.63;1.53;;;21.40;73.70;20.60;96060.00;;;;5104715;28;20204;-59
2021/05/01 10:09:10;;;;;;;2.50;1.40;;;21.30;72.70;20.50;96039.00;;;;5109757;28;20203;-59
2021/05/01 10:12:08;;;;;;;6.33;2.40;;;21.20;72.30;21.40;96033.00;;;;5084558;28;20626;-60
2021/05/01 10:14:56;;;;;;;3.53;1.60;;;21.20;73.50;21.70;96006.00;;;;5086590;28;20701;-59
2021/05/01 10:17:47;;;;;;;3.13;1.53;;;21.70;69.60;22.00;96013.00;;;;5093158;28;20197;-58
2021/05/01 10:20:42;;;;;;;1.40;1.30;;;21.80;71.60;23.20;95995.00;;;;5089511;28;20204;-59
2021/05/01 10:23:29;;;;;;;2.70;1.67;;;22.30;69.40;24.50;95995.00;;;;5086983;28;21141;-59
2021/05/01 10:26:18;;;;;;;1.73;1.50;;;23.00;71.00;24.40;96001.00;;;;5087304;28;20242;-60
2021/05/01 10:29:06;;;;;;;2.50;1.60;;;23.60;67.10;24.40;96007.00;;;;5110638;27;20195;-60
2021/05/01 10:32:00;;;;;;;1.87;1.37;;;23.90;65.50;23.50;96026.00;;;;5110087;27;20584;-59
2021/05/01 10:34:49;;;;;;;1.87;1.53;;;24.00;61.60;23.00;96049.00;;;;5108620;28;20249;-60
2021/05/01 10:37:56;;;;;;;3.20;1.37;;;23.80;63.30;23.10;96030.00;;;;5109581;28;20206;-60
2021/05/01 10:40:48;;;;;;;6.40;2.80;;;23.60;59.60;22.30;96036.00;;;;5107857;28;20577;-59
2021/05/01 10:43:38;;;;;;;2.23;1.57;;;23.30;59.70;22.40;96015.00;;;;5107887;28;20687;-59
2021/05/01 10:46:29;;;;;;;2.70;1.50;;;22.90;62.50;23.50;95981.00;;;;5108885;28;20210;-60
2021/05/01 10:49:17;;;;;;;2.03;1.27;;;23.00;65.10;24.10;95998.00;;;;5087958;28;20215;-58
2021/05/01 10:52:16;;;;;;;3.00;1.77;;;23.60;62.70;22.80;95985.00;;;;5107508;28;20227;-58
2021/05/01 10:55:07;;;;;;;1.20;1.03;;;23.50;59.20;23.50;95963.00;;;;5110703;27;20242;-58
2021/05/01 10:58:00;;;;;;;2.60;1.93;;;23.30;60.30;24.10;95954.00;;;;5113930;27;20756;-59
2021/05/01 11:00:49;;;;;;;2.57;1.87;;;23.50;60.50;23.60;96007.00;;;;5107746;28;20279;-59
2021/05/01 11:03:48;;;;;;;458.40;327.00;;;23.50;60.00;24.50;95984.00;;;;5109021;28;20205;-58
2021/05/01 11:06:45;;;;;;;202.77;155.70;;;23.80;62.40;24.60;96017.00;;;;5092095;28;20226;-60
2021/05/01 11:09:41;;;;;;;51.77;44.73;;;24.20;61.70;24.50;95947.00;;;;5108574;27;20202;-60
2021/05/01 11:12:35;;;;;;;52.33;43.83;;;24.30;60.50;24.50;96009.00;;;;5098399;28;20240;-61
2021/05/01 11:15:25;;;;;;;41.97;32.77;;;24.40;61.60;24.10;96009.00;;;;5091230;28;20241;-60
2021/05/01 11:18:20;;;;;;;8.93;7.77;;;24.40;61.70;23.30;96004.00;;;;5108592;27;20207;-56
2021/05/01 11:21:11;;;;;;;9.97;7.43;;;24.10;59.60;23.50;95958.00;;;;5106310;28;20234;-60
2021/05/01 11:24:00;;;;;;;12.17;7.97;;;23.90;60.90;23.70;95994.00;;;;5108040;28;20222;-58
2021/05/01 11:26:49;;;;;;;3.87;2.70;;;23.90;61.10;23.30;95992.00;;;;5107054;28;20202;-57
2021/05/01 11:29:39;;;;;;;6.13;1.93;;;23.70;60.60;22.90;95992.00;;;;5116720;27;20569;-63
2021/05/01 11:32:28;;;;;;;3.73;2.00;;;23.60;59.60;23.10;95983.00;;;;5111009;27;20717;-56
2021/05/01 11:35:18;;;;;;;2.67;1.60;;;23.40;60.40;23.10;95988.00;;;;5106456;28;20218;-61
2021/05/01 11:38:08;;;;;;;4.53;1.23;;;23.40;59.50;22.70;95981.00;;;;5106767;28;20195;-60
2021/05/01 11:40:57;;;;;;;2.53;1.50;;;23.20;60.40;22.50;95988.00;;;;5107184;28;20210;-61
2021/05/01 11:43:46;;;;;;;1.77;1.20;;;23.10;61.70;22.50;95997.00;;;;5107890;28;20195;-59
2021/05/01 11:46:42;;;;;;;3.70;1.70;;;23.00;62.50;22.40;95981.00;;;;5106628;28;20199;-59
2021/05/01 11:49:31;;;;;;;3.23;1.50;;;22.80;64.00;22.60;95964.00;;;;5107457;28;20187;-57
2021/05/01 11:52:36;;;;;;;4.20;1.60;;;22.80;63.40;23.10;95972.00;;;;5107779;28;20227;-61
2021/05/01 11:55:27;;;;;;;4.73;2.30;;;22.90;64.10;22.80;95972.00;;;;5111838;27;20259;-60
2021/05/01 11:58:31;;;;;;;2.90;2.03;;;23.00;63.60;22.80;95953.00;;;;5111194;27;20214;-59
2021/05/01 12:01:21;;;;;;;2.73;1.50;;;23.00;63.80;22.70;95962.00;;;;5122936;27;20672;-59
2021/05/01 12:04:10;;;;;;;5.53;1.60;;;22.90;64.20;22.20;95949.00;;;;5123825;27;20202;-59
2021/05/01 12:07:01;;;;;;;3.03;2.20;;;22.80;62.50;22.90;95949.00;;;;5115961;27;20193;-58
2021/05/01 12:09:53;;;;;;;3.83;1.77;;;22.90;63.80;23.00;95964.00;;;;5123613;27;20202;-57
2021/05/01 12:12:48;;;;;;;1.97;1.73;;;22.90;65.20;22.90;95939.00;;;;5112069;27;20241;-57
2021/05/01 12:15:38;;;;;;;3.63;1.70;;;23.00;64.20;23.20;95937.00;;;;5106094;27;20234;-57
2021/05/01 12:18:42;;;;;;;2.63;1.77;;;23.00;64.00;23.30;95943.00;;;;5114778;27;20198;-58
2021/05/01 12:21:32;;;;;;;3.77;1.40;;;23.10;64.10;23.20;95937.00;;;;5119098;27;20619;-61
2021/05/01 12:24:26;;;;;;;3.53;1.70;;;23.20;63.10;22.80;95948.00;;;;5105267;28;20303;-57
2021/05/01 12:27:49;;;;;;;5.33;1.80;;;23.10;63.80;22.70;95929.00;;;;5105004;28;20249;-59
2021/05/01 12:31:00;;;;;;;4.37;1.87;;;23.00;64.70;23.80;95901.00;;;;5119553;27;20399;-59
2021/05/01 12:33:53;;;;;;;6.63;1.90;;;23.20;65.40;24.00;95899.00;;;;5125165;27;20189;-59
2021/05/01 12:36:43;;;;;;;3.30;2.70;;;23.40;65.50;23.80;95898.00;;;;5112530;27;20214;-60
2021/05/01 12:39:32;;;;;;;2.80;1.67;;;23.70;64.30;23.60;95899.00;;;;5115846;27;20209;-58
2021/05/01 12:42:23;;;;;;;2.20;2.00;;;23.70;64.00;23.90;95889.00;;;;5122033;27;20214;-60
2021/05/01 12:45:31;;;;;;;3.00;1.80;;;23.80;65.30;24.20;95905.00;;;;5114459;27;21000;-60